createdAt,value
2022-12-19T05:02:01.323Z,-5.59
2022-12-19T05:04:29.945Z,-5.62
2022-12-19T05:06:58.414Z,-5.65
2022-12-19T05:09:27.893Z,-5.69
2022-12-19T05:11:56.546Z,-5.73
2022-12-19T05:14:25.459Z,-5.78
2022-12-19T05:17:00.376Z,-5.83
2022-12-19T05:19:30.770Z,-5.86
2022-12-19T05:22:00.175Z,-5.89
2022-12-19T05:24:30.298Z,-5.89
2022-12-19T05:26:58.683Z,-5.88
2022-12-19T05:29:27.020Z,-5.83
2022-12-19T05:31:56.199Z,-5.80
2022-12-19T05:34:26.242Z,-5.78
2022-12-19T05:36:54.322Z,-5.82
2022-12-19T05:39:23.247Z,-5.83
2022-12-19T05:41:52.162Z,-5.87
2022-12-19T05:44:20.910Z,-5.89
2022-12-19T05:46:49.695Z,-5.94
2022-12-19T05:49:18.868Z,-5.98
2022-12-19T05:51:48.244Z,-6.02
2022-12-19T05:54:17.355Z,-6.07
2022-12-19T05:56:45.806Z,-6.12
2022-12-19T05:59:14.587Z,-6.18
2022-12-19T06:01:42.793Z,-6.19
2022-12-19T06:04:11.707Z,-6.22
2022-12-19T06:06:40.119Z,-6.24
2022-12-19T06:09:08.852Z,-6.23
2022-12-19T06:11:37.011Z,-6.20
2022-12-19T06:14:08.424Z,-6.19
2022-12-19T06:16:36.498Z,-6.16
2022-12-19T06:19:04.566Z,-6.14
2022-12-19T06:21:33.641Z,-6.15
2022-12-19T06:24:02.101Z,-6.14
2022-12-19T06:26:31.912Z,-6.18
2022-12-19T06:29:00.198Z,-6.21
2022-12-19T06:31:29.247Z,-6.23
2022-12-19T06:33:57.547Z,-6.29
2022-12-19T06:36:29.090Z,-6.34
2022-12-19T06:38:58.832Z,-6.37
2022-12-19T06:41:47.939Z,-6.43
2022-12-19T06:44:18.354Z,-6.48
2022-12-19T06:46:47.339Z,-6.50
2022-12-19T06:49:17.309Z,-6.48
2022-12-19T06:51:46.342Z,-6.47
2022-12-19T06:54:16.610Z,-6.44
2022-12-19T06:56:45.441Z,-6.41
2022-12-19T06:59:16.620Z,-6.40
2022-12-19T07:02:01.118Z,-6.38
2022-12-19T07:04:46.108Z,-6.41
2022-12-19T07:07:14.344Z,-6.45
2022-12-19T07:09:43.305Z,-6.46
2022-12-19T07:12:12.260Z,-6.47
2022-12-19T07:14:40.376Z,-6.46
2022-12-19T07:17:09.370Z,-6.49
2022-12-19T07:19:38.104Z,-6.49
2022-12-19T07:22:07.832Z,-6.49
2022-12-19T07:24:37.538Z,-6.48
2022-12-19T07:27:07.989Z,-6.47
2022-12-19T07:29:36.252Z,-6.45
2022-12-19T07:32:05.429Z,-6.44
2022-12-19T07:34:34.616Z,-6.45
2022-12-19T07:37:02.632Z,-6.41
2022-12-19T07:39:30.902Z,-6.36
2022-12-19T07:41:58.861Z,-6.32
2022-12-19T07:44:40.584Z,-6.26
2022-12-19T07:47:09.961Z,-6.18
2022-12-19T07:49:38.826Z,-6.12
2022-12-19T07:52:08.923Z,-6.08
2022-12-19T07:54:37.926Z,-6.04
2022-12-19T07:57:08.339Z,-6.03
2022-12-19T07:59:39.313Z,-6.05
2022-12-19T08:02:08.376Z,-6.08
2022-12-19T08:04:36.839Z,-6.10
2022-12-19T08:07:05.745Z,-6.12
2022-12-19T08:09:33.991Z,-6.13
2022-12-19T08:12:02.308Z,-6.17
2022-12-19T08:14:31.345Z,-6.19
2022-12-19T08:19:47.955Z,-6.21
2022-12-19T08:22:17.183Z,-6.20
2022-12-19T08:24:45.647Z,-6.20
2022-12-19T08:27:16.020Z,-6.21
2022-12-19T08:29:44.853Z,-6.22
2022-12-19T08:32:20.449Z,-6.22
2022-12-19T08:34:51.395Z,-6.22
2022-12-19T08:37:19.576Z,-6.21
2022-12-19T08:39:48.663Z,-6.17
2022-12-19T08:42:18.143Z,-6.12
2022-12-19T08:44:47.420Z,-6.07
2022-12-19T08:47:16.887Z,-6.03
2022-12-19T08:49:46.479Z,-5.97
2022-12-19T08:52:17.027Z,-5.88
2022-12-19T08:54:45.955Z,-5.80
2022-12-19T08:57:15.270Z,-5.69
2022-12-19T08:59:44.321Z,-5.61
2022-12-19T09:02:14.883Z,-5.50
2022-12-19T09:05:59.607Z,-5.42
2022-12-19T09:07:35.335Z,-5.31
2022-12-19T09:10:12.289Z,-5.23
2022-12-19T09:12:42.263Z,-5.15
2022-12-19T09:15:11.204Z,-5.11
2022-12-19T09:17:40.984Z,-5.09
2022-12-19T09:20:11.094Z,-5.10
2022-12-19T09:22:40.866Z,-5.12
2022-12-19T09:25:11.430Z,-5.13
2022-12-19T09:28:17.501Z,-5.16
2022-12-19T09:30:30.010Z,-5.23
2022-12-19T09:33:00.489Z,-5.30
2022-12-19T09:35:30.628Z,-5.35
2022-12-19T09:38:00.646Z,-5.39
2022-12-19T09:40:40.893Z,-5.44
2022-12-19T09:43:41.237Z,-5.48
2022-12-19T09:46:23.015Z,-5.52
2022-12-19T09:48:56.819Z,-5.56
2022-12-19T09:51:38.929Z,-5.56
2022-12-19T09:54:33.752Z,-5.58
2022-12-19T09:57:11.628Z,-5.58
2022-12-19T09:59:51.501Z,-5.57
2022-12-19T10:02:42.302Z,-5.56
2022-12-19T10:05:34.939Z,-5.54
2022-12-19T10:08:39.668Z,-5.53
2022-12-19T10:12:42.462Z,-5.48
2022-12-19T10:15:01.256Z,-5.46
2022-12-19T10:18:09.036Z,-5.44
2022-12-19T10:20:55.400Z,-5.43
2022-12-19T10:24:02.194Z,-5.40
2022-12-19T10:26:44.861Z,-5.35
2022-12-19T10:29:44.904Z,-5.34
2022-12-19T10:32:57.462Z,-5.32
2022-12-19T10:35:34.570Z,-5.28
2022-12-19T10:38:18.001Z,-5.26
2022-12-19T10:40:54.395Z,-5.24
2022-12-19T10:43:34.681Z,-5.22
2022-12-19T10:46:18.918Z,-5.18
2022-12-19T10:48:53.137Z,-5.14
2022-12-19T10:51:30.142Z,-5.11
2022-12-19T10:54:01.754Z,-5.10
2022-12-19T10:56:37.572Z,-5.09
2022-12-19T10:59:18.863Z,-5.09
2022-12-19T11:01:49.340Z,-5.08
2022-12-19T11:04:36.624Z,-5.05
2022-12-19T11:07:05.883Z,-5.02
2022-12-19T11:09:37.960Z,-4.98
2022-12-19T11:16:20.082Z,-4.97
2022-12-19T11:21:03.261Z,-4.93
2022-12-19T11:29:14.931Z,-4.91
2022-12-19T11:29:30.231Z,-4.89
2022-12-19T11:29:30.747Z,-4.81
2022-12-19T11:29:53.427Z,-4.86
2022-12-19T11:32:41.153Z,-4.74
2022-12-19T11:35:36.752Z,-4.70
2022-12-19T11:38:14.809Z,-4.63
2022-12-19T11:40:56.507Z,-4.60
2022-12-19T11:43:54.779Z,-4.55
2022-12-19T11:46:55.929Z,-4.51
2022-12-19T11:49:41.740Z,-4.48
2022-12-19T11:53:03.617Z,-4.46
2022-12-19T11:55:11.830Z,-4.44
2022-12-19T11:57:42.748Z,-4.42
2022-12-19T12:00:22.153Z,-4.42
2022-12-19T12:03:18.784Z,-4.40
2022-12-19T12:05:49.818Z,-4.39
2022-12-19T12:09:23.773Z,-4.36
2022-12-19T12:14:02.072Z,-4.34
2022-12-19T12:26:30.999Z,-4.33
2022-12-19T12:31:15.523Z,-4.32
2022-12-19T12:31:27.718Z,-4.33
2022-12-19T12:31:51.157Z,-4.24
2022-12-19T12:32:02.058Z,-4.28
2022-12-19T12:32:04.003Z,-4.24
2022-12-19T12:35:34.977Z,-4.21
2022-12-19T12:37:47.835Z,-4.19
2022-12-19T12:38:29.128Z,-4.19
2022-12-19T12:41:07.717Z,-4.18
2022-12-19T12:44:09.322Z,-4.15
2022-12-19T12:46:48.721Z,-4.11
2022-12-19T12:49:32.976Z,-4.11
2022-12-19T12:52:04.803Z,-4.10
2022-12-19T12:54:41.982Z,-4.11
2022-12-19T12:57:36.085Z,-4.09
2022-12-19T13:00:16.472Z,-4.07
2022-12-19T13:03:06.061Z,-4.07
2022-12-19T13:05:46.821Z,-4.08
2022-12-19T13:08:26.565Z,-4.08
2022-12-19T13:11:01.979Z,-4.10
2022-12-19T13:13:54.093Z,-4.10
2022-12-19T13:16:41.820Z,-4.12
2022-12-19T13:19:24.102Z,-4.15
2022-12-19T13:22:10.648Z,-4.15
2022-12-19T13:24:47.396Z,-4.18
2022-12-19T13:27:19.555Z,-4.20
2022-12-19T13:29:55.041Z,-4.25
2022-12-19T13:32:24.774Z,-4.31
2022-12-19T13:36:04.149Z,-4.35
2022-12-19T13:39:56.899Z,-4.39
2022-12-19T13:41:50.768Z,-4.44
2022-12-19T13:44:22.400Z,-4.46
2022-12-19T13:46:51.317Z,-4.50
2022-12-19T13:49:34.519Z,-4.50
2022-12-19T13:52:06.015Z,-4.49
2022-12-19T13:54:46.275Z,-4.49
2022-12-19T13:57:30.933Z,-4.51
2022-12-19T14:00:04.024Z,-4.51
2022-12-19T14:02:46.322Z,-4.50
2022-12-19T14:06:14.460Z,-4.50
2022-12-19T14:08:26.131Z,-4.47
2022-12-19T14:11:39.219Z,-4.45
2022-12-19T14:14:27.472Z,-4.43
2022-12-19T14:17:13.227Z,-4.40
2022-12-19T14:19:47.888Z,-4.36
2022-12-19T14:22:25.868Z,-4.34
2022-12-19T14:25:33.112Z,-4.32
2022-12-19T14:28:17.827Z,-4.31
2022-12-19T14:30:56.497Z,-4.28
2022-12-19T14:33:46.020Z,-4.26
2022-12-19T14:36:33.748Z,-4.25
2022-12-19T14:39:24.146Z,-4.22
2022-12-19T14:42:31.769Z,-4.19
2022-12-19T14:52:08.103Z,-4.14
2022-12-19T14:54:05.398Z,-4.14
2022-12-19T14:54:28.468Z,-4.13
2022-12-19T14:57:25.395Z,-4.08
2022-12-19T15:00:50.914Z,-4.05
2022-12-19T15:03:34.734Z,-4.03
2022-12-19T15:06:31.562Z,-4.01
2022-12-19T15:11:08.239Z,-3.96
2022-12-19T15:14:04.045Z,-3.95
2022-12-19T15:15:22.297Z,-3.90
2022-12-19T15:17:55.854Z,-3.89
2022-12-19T15:20:24.027Z,-3.87
2022-12-19T15:22:53.023Z,-3.86
2022-12-19T15:25:53.086Z,-3.87
2022-12-19T15:28:25.781Z,-3.86
2022-12-19T15:31:05.809Z,-3.84
2022-12-19T15:33:34.754Z,-3.82
2022-12-19T15:36:03.895Z,-3.78
2022-12-19T15:38:33.091Z,-3.76
2022-12-19T15:41:02.242Z,-3.74
2022-12-19T15:44:02.546Z,-3.73
2022-12-19T15:46:19.860Z,-3.69
2022-12-19T15:48:51.489Z,-3.68
2022-12-19T15:51:20.000Z,-3.67
2022-12-19T15:53:48.966Z,-3.66
2022-12-19T15:56:32.655Z,-3.65
2022-12-19T15:59:03.273Z,-3.66
2022-12-19T16:01:33.902Z,-3.65
2022-12-19T16:04:03.732Z,-3.64
2022-12-19T16:06:32.639Z,-3.61
2022-12-19T16:09:00.815Z,-3.58
2022-12-19T16:11:29.791Z,-3.56
2022-12-19T16:13:59.068Z,-3.54
2022-12-19T16:16:28.226Z,-3.53
2022-12-19T16:18:56.445Z,-3.52
2022-12-19T16:21:33.702Z,-3.52
2022-12-19T16:24:03.755Z,-3.51
2022-12-19T16:26:35.680Z,-3.49
2022-12-19T16:29:05.176Z,-3.48
2022-12-19T16:31:33.979Z,-3.46
2022-12-19T16:34:02.591Z,-3.43
2022-12-19T16:36:31.841Z,-3.42
2022-12-19T16:38:59.852Z,-3.43
2022-12-19T16:41:28.553Z,-3.42
2022-12-19T16:43:57.397Z,-3.41
2022-12-19T16:46:31.104Z,-3.40
2022-12-19T16:48:59.791Z,-3.40
2022-12-19T16:51:28.111Z,-3.38
2022-12-19T16:54:00.930Z,-3.35
2022-12-19T16:56:38.654Z,-3.31
2022-12-19T16:59:23.630Z,-3.28
2022-12-19T17:01:52.471Z,-3.27
2022-12-19T17:04:24.705Z,-3.24
2022-12-19T17:06:54.523Z,-3.18
2022-12-19T17:09:25.512Z,-3.13
2022-12-19T17:12:00.662Z,-3.07
2022-12-19T17:14:35.057Z,-3.01
2022-12-19T17:17:04.588Z,-2.95
2022-12-19T17:19:37.920Z,-2.89
2022-12-19T17:22:17.515Z,-2.86
2022-12-19T17:24:47.585Z,-2.83
2022-12-19T17:27:17.985Z,-2.79
2022-12-19T17:29:47.338Z,-2.76
2022-12-19T17:32:23.567Z,-2.74
2022-12-19T17:34:53.872Z,-2.73
2022-12-19T17:37:23.401Z,-2.73
2022-12-19T17:39:52.618Z,-2.72
2022-12-19T17:42:28.731Z,-2.70
2022-12-19T17:45:00.885Z,-2.68
2022-12-19T17:47:30.511Z,-2.68
2022-12-19T17:49:59.563Z,-2.67
2022-12-19T17:52:29.299Z,-2.66
2022-12-19T17:54:57.502Z,-2.65
2022-12-19T17:57:27.503Z,-2.64
2022-12-19T17:59:56.873Z,-2.64
2022-12-19T18:02:27.170Z,-2.63
2022-12-19T18:04:56.088Z,-2.64
2022-12-19T18:07:24.754Z,-2.63
2022-12-19T18:09:53.135Z,-2.62
2022-12-19T18:12:21.397Z,-2.61
2022-12-19T18:14:49.692Z,-2.59
2022-12-19T18:17:25.970Z,-2.57
2022-12-19T18:19:55.378Z,-2.57
2022-12-19T18:22:24.122Z,-2.58
2022-12-19T18:24:52.686Z,-2.56
2022-12-19T18:27:21.249Z,-2.52
2022-12-19T18:29:50.507Z,-2.49
2022-12-19T18:32:20.832Z,-2.46
2022-12-19T18:34:52.634Z,-2.41
2022-12-19T18:37:21.779Z,-2.33
2022-12-19T18:39:56.824Z,-2.27
2022-12-19T18:42:25.507Z,-2.23
2022-12-19T18:44:53.887Z,-2.20
2022-12-19T18:47:23.692Z,-2.20
2022-12-19T18:49:53.317Z,-2.18
2022-12-19T18:52:22.627Z,-2.16
2022-12-19T18:54:51.927Z,-2.17
2022-12-19T18:57:20.499Z,-2.18
2022-12-19T18:59:50.327Z,-2.20
2022-12-19T19:02:26.007Z,-2.23
2022-12-19T19:04:56.120Z,-2.23
2022-12-19T19:07:24.597Z,-2.23
2022-12-19T19:09:52.810Z,-2.22
2022-12-19T19:12:44.319Z,-2.23
2022-12-19T19:15:12.496Z,-2.23
2022-12-19T19:17:42.454Z,-2.20
2022-12-19T19:20:11.057Z,-2.20
2022-12-19T19:22:39.346Z,-2.19
2022-12-19T19:25:08.000Z,-2.18
2022-12-19T19:27:37.670Z,-2.14
2022-12-19T19:30:11.868Z,-2.09
2022-12-19T19:32:52.177Z,-2.04
2022-12-19T19:35:22.401Z,-1.95
2022-12-19T19:37:59.479Z,-1.89
2022-12-19T19:40:28.313Z,-1.85
2022-12-19T19:42:56.594Z,-1.80
2022-12-19T19:45:24.919Z,-1.75
2022-12-19T19:47:54.758Z,-1.71
2022-12-19T19:50:24.975Z,-1.69
2022-12-19T19:52:52.946Z,-1.67
2022-12-19T19:55:20.920Z,-1.67
2022-12-19T19:57:49.161Z,-1.68
2022-12-19T20:00:17.925Z,-1.69
2022-12-19T20:02:46.218Z,-1.70
2022-12-19T20:05:15.635Z,-1.69
2022-12-19T20:07:45.595Z,-1.69
2022-12-19T20:10:14.280Z,-1.70
2022-12-19T20:12:42.499Z,-1.70
2022-12-19T20:15:12.205Z,-1.67
2022-12-19T20:17:40.985Z,-1.64
2022-12-19T20:20:09.606Z,-1.60
2022-12-19T20:22:37.952Z,-1.57
2022-12-19T20:25:06.255Z,-1.54
2022-12-19T20:27:35.354Z,-1.49
2022-12-19T20:30:06.186Z,-1.44
2022-12-19T20:32:37.248Z,-1.43
2022-12-19T20:35:14.739Z,-1.42
2022-12-19T20:37:48.886Z,-1.42
2022-12-19T20:40:19.584Z,-1.43
2022-12-19T20:42:48.619Z,-1.44
2022-12-19T20:45:16.909Z,-1.46
2022-12-19T20:47:45.956Z,-1.47
2022-12-19T20:50:18.868Z,-1.46
2022-12-19T20:52:50.702Z,-1.44
2022-12-19T20:55:18.908Z,-1.41
2022-12-19T20:57:47.220Z,-1.35
2022-12-19T21:00:16.017Z,-1.27
2022-12-19T21:03:25.815Z,-1.20
2022-12-19T21:05:33.167Z,-1.13
2022-12-19T21:08:01.545Z,-1.10
2022-12-19T21:10:29.746Z,-1.09
2022-12-19T21:12:57.855Z,-1.09
2022-12-19T21:15:26.039Z,-1.09
2022-12-19T21:17:54.356Z,-1.10
2022-12-19T21:20:22.558Z,-1.07
2022-12-19T21:22:51.020Z,-1.05
2022-12-19T21:25:20.022Z,-1.01
2022-12-19T21:27:48.541Z,-0.98
2022-12-19T21:30:16.934Z,-0.95
2022-12-19T21:32:45.966Z,-0.91
2022-12-19T21:35:14.407Z,-0.85
2022-12-19T21:37:44.467Z,-0.82
2022-12-19T21:40:13.433Z,-0.80
2022-12-19T21:42:42.126Z,-0.76
2022-12-19T21:45:11.645Z,-0.75
2022-12-19T21:47:42.102Z,-0.75
2022-12-19T21:50:13.430Z,-0.72
2022-12-19T21:52:42.085Z,-0.70
2022-12-19T21:55:10.728Z,-0.67
2022-12-19T21:57:41.594Z,-0.63
2022-12-19T22:00:12.981Z,-0.61
2022-12-19T22:03:01.531Z,-0.57
2022-12-19T22:05:30.000Z,-0.55
2022-12-19T22:07:58.207Z,-0.52
2022-12-19T22:10:26.875Z,-0.50
2022-12-19T22:12:55.157Z,-0.49
2022-12-19T22:15:23.203Z,-0.47
2022-12-19T22:17:51.382Z,-0.44
2022-12-19T22:20:19.856Z,-0.37
2022-12-19T22:22:48.018Z,-0.33
2022-12-19T22:25:16.824Z,-0.28
2022-12-19T22:27:45.008Z,-0.24
2022-12-19T22:30:13.366Z,-0.17
2022-12-19T22:32:42.804Z,-0.11
2022-12-19T22:35:11.723Z,-0.05
2022-12-19T22:37:40.226Z,-0.02
2022-12-19T22:40:08.951Z,0.01
2022-12-19T22:42:37.634Z,0.05
2022-12-19T22:45:06.787Z,0.08
2022-12-19T22:47:35.894Z,0.11
2022-12-19T22:50:04.474Z,0.15
2022-12-19T22:52:32.918Z,0.22
2022-12-19T22:55:01.660Z,0.28
2022-12-19T22:57:30.502Z,0.33
2022-12-19T22:59:58.555Z,0.39
2022-12-19T23:02:26.854Z,0.45
2022-12-19T23:04:55.646Z,0.48
2022-12-19T23:07:24.014Z,0.50
2022-12-19T23:09:52.125Z,0.52
2022-12-19T23:12:20.492Z,0.56
2022-12-19T23:14:48.862Z,0.59
2022-12-19T23:17:17.861Z,0.66
2022-12-19T23:19:46.804Z,0.70
2022-12-19T23:22:15.946Z,0.76
2022-12-19T23:24:45.289Z,0.81
2022-12-19T23:27:14.734Z,0.84
2022-12-19T23:29:46.236Z,0.85
2022-12-19T23:32:15.296Z,0.85
2022-12-19T23:34:44.302Z,0.86
2022-12-19T23:37:13.256Z,0.90
2022-12-19T23:39:42.040Z,0.94
2022-12-19T23:42:11.051Z,0.98
2022-12-19T23:44:41.147Z,1.01
2022-12-19T23:47:10.272Z,1.05
2022-12-19T23:49:39.700Z,1.08
2022-12-19T23:52:08.715Z,1.11
2022-12-19T23:54:37.604Z,1.13
2022-12-19T23:57:06.704Z,1.16
2022-12-19T23:59:35.888Z,1.19
